Time;durP1;ratioP1;P1;durP2;ratioP2;P2;SDS_P1;SDS_P2;PMS_P1;PMS_P2;Temp;Humidity;BMP_temperature;BMP_pressure;BME280_temperature;BME280_humidity;BME280_pressure;Samples;Min_cycle;Max_cycle;Signal;HPM_P1;HPM_P2
2022/05/09 00:00:19;;;;;;;10.27;9.37;;;;;;;15.06;87.79;96087.19;4392369;32;20189;-59
2022/05/09 00:02:45;;;;;;;9.73;8.83;;;;;;;14.97;87.83;96083.66;4391467;32;20185;-60
2022/05/09 00:05:15;;;;;;;10.03;9.33;;;;;;;14.96;88.08;96087.44;4393773;32;20222;-60
2022/05/09 00:07:41;;;;;;;9.13;8.53;;;;;;;14.93;88.07;96074.69;4391705;32;20192;-60
2022/05/09 00:10:08;;;;;;;10.03;9.30;;;;;;;15.00;87.73;96083.03;4391905;32;20203;-60
2022/05/09 00:12:34;;;;;;;9.43;8.73;;;;;;;14.86;88.59;96074.28;4393086;32;20188;-59
2022/05/09 00:14:59;;;;;;;10.20;9.40;;;;;;;14.92;88.09;96083.78;4385169;32;20168;-60
2022/05/09 00:17:24;;;;;;;9.20;8.60;;;;;;;14.98;87.35;96079.88;4393342;32;20184;-60
2022/05/09 00:19:50;;;;;;;9.20;8.60;;;;;;;15.08;87.36;96081.53;4391905;32;20189;-59
2022/05/09 00:22:15;;;;;;;9.60;8.87;;;;;;;15.01;87.84;96076.63;4391275;32;20216;-59
2022/05/09 00:24:40;;;;;;;10.77;10.03;;;;;;;14.99;87.66;96070.78;4391315;32;20197;-60
2022/05/09 00:27:06;;;;;;;10.53;9.73;;;;;;;14.95;87.59;96077.06;4391014;32;20211;-59
2022/05/09 00:29:31;;;;;;;9.27;8.57;;;;;;;15.00;87.55;96077.69;4393120;32;20218;-59
2022/05/09 00:31:57;;;;;;;10.73;9.93;;;;;;;15.07;87.50;96078.09;4392580;32;20230;-59
2022/05/09 00:34:24;;;;;;;9.03;8.40;;;;;;;15.01;87.22;96081.16;4391777;32;20190;-59
2022/05/09 00:36:52;;;;;;;10.90;10.00;;;;;;;14.97;87.62;96083.66;4391645;32;20181;-59
2022/05/09 00:39:18;;;;;;;11.77;10.87;;;;;;;14.90;87.89;96079.81;4391319;32;20211;-59
2022/05/09 00:41:44;;;;;;;9.73;9.03;;;;;;;14.85;87.93;96080.72;4391339;32;20214;-59
2022/05/09 00:44:13;;;;;;;9.93;9.23;;;;;;;14.87;88.40;96081.22;4391317;32;20236;-59
2022/05/09 00:46:41;;;;;;;9.37;8.57;;;;;;;14.87;88.20;96083.87;4391161;32;20184;-59
2022/05/09 00:49:17;;;;;;;10.63;9.80;;;;;;;14.78;89.09;96085.69;4392702;32;20223;-60
2022/05/09 00:51:55;;;;;;;10.17;9.37;;;;;;;14.74;88.89;96092.75;4390828;32;20237;-60
2022/05/09 00:54:21;;;;;;;10.20;9.43;;;;;;;14.56;89.45;96086.41;4390923;32;20193;-60
2022/05/09 00:56:55;;;;;;;10.40;9.60;;;;;;;14.48;90.20;96083.69;4391044;32;20192;-60
2022/05/09 00:59:22;;;;;;;10.70;9.90;;;;;;;14.55;90.26;96084.84;4391246;32;20188;-60
2022/05/09 01:01:48;;;;;;;10.90;9.93;;;;;;;14.56;90.27;96080.28;4390873;32;23258;-60
2022/05/09 01:04:16;;;;;;;10.10;9.23;;;;;;;14.50;90.62;96081.50;4391232;32;20230;-60
2022/05/09 01:06:42;;;;;;;9.97;9.17;;;;;;;14.62;89.82;96079.09;4390771;32;20196;-60
2022/05/09 01:09:10;;;;;;;10.73;10.03;;;;;;;14.56;90.04;96088.28;4391060;32;20176;-59
2022/05/09 01:11:37;;;;;;;10.23;9.43;;;;;;;14.64;89.68;96083.06;4390514;32;20185;-59
2022/05/09 01:14:11;;;;;;;10.07;9.13;;;;;;;14.77;89.17;96079.53;4390547;32;20206;-59
2022/05/09 01:16:37;;;;;;;9.73;9.03;;;;;;;14.67;89.64;96082.44;4390658;32;20218;-59
2022/05/09 01:19:11;;;;;;;9.77;8.97;;;;;;;14.78;89.36;96080.34;4391934;32;20264;-59
2022/05/09 01:21:40;;;;;;;10.80;9.90;;;;;;;14.86;88.97;96079.62;4392184;32;20180;-59
2022/05/09 01:24:14;;;;;;;10.50;9.27;;;;;;;14.66;89.70;96075.53;4390822;32;20207;-59
2022/05/09 01:26:39;;;;;;;10.53;9.33;;;;;;;14.62;89.89;96079.88;4390338;32;20195;-60
2022/05/09 01:29:21;;;;;;;10.63;9.63;;;;;;;14.69;89.44;96076.81;4390771;32;20180;-60
2022/05/09 01:31:49;;;;;;;11.17;10.07;;;;;;;14.61;90.06;96077.50;4390710;32;20271;-60
2022/05/09 01:34:15;;;;;;;11.30;10.40;;;;;;;14.64;89.74;96071.56;4390537;32;20192;-59
2022/05/09 01:36:42;;;;;;;9.87;9.17;;;;;;;14.64;89.59;96079.59;4390719;32;20257;-60
2022/05/09 01:39:11;;;;;;;10.27;9.50;;;;;;;14.70;89.28;96076.53;4390141;32;20177;-60
2022/05/09 01:41:47;;;;;;;11.37;10.23;;;;;;;14.66;89.93;96080.09;4390604;32;20196;-60
2022/05/09 01:44:14;;;;;;;10.77;9.97;;;;;;;14.61;89.71;96083.66;4389957;32;20204;-60
2022/05/09 01:49:31;;;;;;;10.37;9.63;;;;;;;14.60;90.18;96083.94;4390545;32;20198;-58
2022/05/09 01:52:05;;;;;;;9.70;9.10;;;;;;;14.63;90.24;96083.34;4390926;32;20199;-59
2022/05/09 01:54:31;;;;;;;11.53;10.50;;;;;;;14.64;89.62;96085.72;4388195;32;20188;-59
2022/05/09 01:56:57;;;;;;;12.00;10.83;;;;;;;14.51;90.21;96081.19;4391498;32;20184;-60
2022/05/09 01:59:22;;;;;;;13.33;10.00;;;;;;;14.62;89.85;96079.09;4390223;32;20214;-59
2022/05/09 02:01:52;;;;;;;11.33;10.33;;;;;;;14.54;90.23;96085.94;4391141;32;20247;-60
2022/05/09 02:04:18;;;;;;;11.87;10.60;;;;;;;14.38;90.31;96085.41;4389183;32;20184;-59
2022/05/09 02:06:43;;;;;;;11.73;10.70;;;;;;;14.23;91.13;96083.06;4388650;32;20202;-59
2022/05/09 02:09:10;;;;;;;11.30;10.40;;;;;;;14.32;90.81;96085.84;4390368;32;20189;-60
2022/05/09 02:11:35;;;;;;;10.33;9.47;;;;;;;14.31;91.29;96082.38;4389441;32;20177;-59
2022/05/09 02:14:01;;;;;;;11.07;10.00;;;;;;;14.23;91.58;96079.59;4388296;32;20232;-60
2022/05/09 02:16:27;;;;;;;10.77;9.90;;;;;;;14.17;91.55;96080.78;4392737;32;20181;-60
2022/05/09 02:18:53;;;;;;;10.80;10.00;;;;;;;14.31;90.92;96082.38;4389494;32;20190;-60
2022/05/09 02:21:18;;;;;;;11.57;10.77;;;;;;;14.30;90.82;96086.13;4390047;32;20239;-60
2022/05/09 02:23:43;;;;;;;11.43;10.53;;;;;;;14.17;91.20;96086.13;4389723;32;20204;-60
2022/05/09 02:26:09;;;;;;;10.60;9.80;;;;;;;14.00;91.59;96086.72;4389323;32;20251;-60
2022/05/09 02:28:35;;;;;;;11.40;10.50;;;;;;;14.04;91.74;96085.03;4389269;32;20185;-59
2022/05/09 02:31:00;;;;;;;11.33;10.53;;;;;;;13.90;92.29;96089.59;4390403;32;20291;-59
2022/05/09 02:33:26;;;;;;;11.33;10.53;;;;;;;14.01;92.28;96090.97;4391087;32;20207;-59
2022/05/09 02:35:51;;;;;;;11.80;10.90;;;;;;;14.03;91.98;96088.81;4390008;32;20199;-59
2022/05/09 02:38:17;;;;;;;12.80;11.73;;;;;;;14.16;91.57;96087.22;4390357;32;20192;-59
2022/05/09 02:40:42;;;;;;;10.83;10.00;;;;;;;14.22;90.69;96084.16;4403525;32;20233;-59
2022/05/09 02:43:08;;;;;;;13.97;12.63;;;;;;;14.34;90.84;96087.09;4389831;32;20229;-59
2022/05/09 02:45:33;;;;;;;11.17;10.37;;;;;;;14.20;90.54;96085.53;4389160;32;20180;-60
2022/05/09 02:47:59;;;;;;;11.53;10.67;;;;;;;14.19;91.13;96075.94;4389003;32;20243;-58
2022/05/09 02:50:25;;;;;;;12.40;11.37;;;;;;;14.10;91.64;96083.87;4390108;32;20188;-59
2022/05/09 02:52:52;;;;;;;12.07;11.13;;;;;;;13.98;91.71;96081.69;4390602;32;20237;-59
2022/05/09 02:55:19;;;;;;;12.80;11.60;;;;;;;14.18;91.71;96082.38;4390462;32;20239;-59
2022/05/09 02:57:45;;;;;;;13.33;11.03;;;;;;;13.99;91.72;96074.47;4390620;32;20203;-59
2022/05/09 03:00:18;;;;;;;11.70;10.70;;;;;;;14.00;92.26;96079.50;4389053;32;20176;-59
2022/05/09 03:04:38;;;;;;;12.03;10.80;;;;;;;14.17;91.03;96078.91;4387840;32;20184;-59
2022/05/09 03:05:29;;;;;;;12.13;11.03;;;;;;;14.04;91.72;96075.16;4386814;32;20263;-58
2022/05/09 03:07:55;;;;;;;12.63;11.63;;;;;;;14.07;91.80;96079.12;4388448;32;20168;-59
2022/05/09 03:10:20;;;;;;;13.40;12.33;;;;;;;14.12;91.53;96076.37;4389123;32;20187;-60
2022/05/09 03:12:45;;;;;;;12.00;11.00;;;;;;;14.11;91.49;96080.12;4390676;32;20251;-60
2022/05/09 03:15:11;;;;;;;13.73;12.27;;;;;;;14.19;91.51;96081.28;4389782;32;20279;-60
2022/05/09 03:17:36;;;;;;;13.13;11.93;;;;;;;14.23;91.16;96082.28;4391684;32;20176;-60
2022/05/09 03:20:03;;;;;;;12.97;11.87;;;;;;;14.04;91.73;96079.72;4391973;32;20184;-60
2022/05/09 03:22:28;;;;;;;13.40;12.13;;;;;;;14.04;91.64;96085.84;4393390;32;20199;-59
2022/05/09 03:24:54;;;;;;;12.93;11.83;;;;;;;14.14;91.57;96087.50;4394067;32;20260;-59
2022/05/09 03:27:19;;;;;;;11.60;10.77;;;;;;;14.22;91.21;96081.47;4391564;32;20181;-60
2022/05/09 03:29:45;;;;;;;13.20;12.07;;;;;;;14.17;91.22;96078.13;4391959;32;20186;-61
2022/05/09 03:32:10;;;;;;;12.83;11.73;;;;;;;14.14;90.77;96078.72;4393251;32;20200;-59
2022/05/09 03:34:36;;;;;;;13.73;12.70;;;;;;;13.99;91.11;96077.91;4391848;32;20250;-59
2022/05/09 03:37:01;;;;;;;11.97;11.03;;;;;;;13.93;91.92;96086.31;4391992;32;20184;-59
2022/05/09 03:39:27;;;;;;;12.87;11.93;;;;;;;14.00;91.64;96078.72;4393094;32;20176;-59
2022/05/09 03:41:52;;;;;;;12.80;11.80;;;;;;;13.98;91.34;96083.56;4391328;32;20253;-59
2022/05/09 03:44:18;;;;;;;12.63;11.63;;;;;;;14.05;91.58;96086.62;4393388;32;20191;-59
2022/05/09 03:46:43;;;;;;;13.17;12.13;;;;;;;14.06;91.14;96085.53;4391340;32;20199;-59
2022/05/09 03:49:10;;;;;;;11.50;10.60;;;;;;;14.06;91.20;96085.53;4391646;32;20199;-60
2022/05/09 03:51:36;;;;;;;12.80;11.67;;;;;;;13.99;90.87;96082.47;4393158;32;20204;-60
2022/05/09 03:54:01;;;;;;;11.53;10.63;;;;;;;14.12;90.68;96087.03;4390924;32;20199;-59
2022/05/09 03:56:26;;;;;;;11.50;10.53;;;;;;;14.10;90.68;96089.22;4392061;32;20184;-59
2022/05/09 03:58:51;;;;;;;11.23;10.33;;;;;;;13.99;91.03;96098.47;4391962;32;20235;-59
2022/05/09 04:01:17;;;;;;;11.73;10.87;;;;;;;14.12;90.66;96092.38;4392638;32;20237;-59
2022/05/09 04:03:42;;;;;;;13.27;12.07;;;;;;;14.11;90.33;96096.13;4388922;32;20193;-59
2022/05/09 04:06:13;;;;;;;12.17;11.07;;;;;;;14.07;90.02;96095.12;4389018;32;20222;-59
2022/05/09 04:08:39;;;;;;;12.53;11.27;;;;;;;14.07;90.71;96092.47;4391349;32;20180;-60
2022/05/09 04:11:10;;;;;;;12.50;11.23;;;;;;;14.10;90.80;96095.34;4393139;32;20267;-59
2022/05/09 04:13:36;;;;;;;11.57;10.57;;;;;;;14.01;90.72;96099.75;4390367;32;20211;-60
2022/05/09 04:18:45;;;;;;;11.27;10.27;;;;;;;13.89;91.65;96104.00;4391387;32;20234;-59
2022/05/09 04:21:14;;;;;;;10.97;9.97;;;;;;;13.91;91.57;96107.97;4391287;32;20176;-59
2022/05/09 04:23:39;;;;;;;12.13;11.03;;;;;;;13.95;91.04;96114.28;4389721;32;20259;-59
2022/05/09 04:26:15;;;;;;;12.03;10.93;;;;;;;13.74;91.04;96118.38;4388900;32;20180;-59
2022/05/09 04:28:40;;;;;;;11.57;10.47;;;;;;;13.72;91.74;96113.34;4389358;32;20218;-59
2022/05/09 04:31:15;;;;;;;11.87;10.80;;;;;;;13.66;92.27;96114.53;4387765;32;20216;-59
2022/05/09 04:33:41;;;;;;;13.43;11.80;;;;;;;13.80;92.29;96117.22;4389248;32;20259;-61
2022/05/09 04:36:12;;;;;;;11.97;10.07;;;;;;;13.85;91.98;96114.47;4390798;32;20228;-59
2022/05/09 04:38:41;;;;;;;17.47;10.70;;;;;;;13.87;91.49;96114.19;4389242;32;20218;-59
2022/05/09 04:41:13;;;;;;;11.70;10.73;;;;;;;13.89;91.13;96114.69;4389162;32;20228;-59
2022/05/09 04:43:39;;;;;;;10.80;10.00;;;;;;;13.94;90.74;96117.22;4384385;32;20207;-59
2022/05/09 04:46:14;;;;;;;11.73;10.63;;;;;;;13.92;91.26;96114.09;4388655;32;20179;-59
2022/05/09 04:48:41;;;;;;;12.83;11.53;;;;;;;13.81;92.04;96118.00;4388739;32;20199;-59
2022/05/09 04:51:13;;;;;;;12.87;11.60;;;;;;;13.93;91.34;96126.31;4388577;32;20196;-59
2022/05/09 04:53:39;;;;;;;15.47;12.30;;;;;;;13.99;90.70;96122.47;4388508;32;20181;-59
2022/05/09 04:56:13;;;;;;;17.33;12.10;;;;;;;13.91;91.70;96117.84;4388138;32;20254;-60
2022/05/09 04:58:38;;;;;;;21.73;12.17;;;;;;;13.95;91.61;96116.16;4397012;32;20270;-58
2022/05/09 05:01:11;;;;;;;22.47;12.37;;;;;;;13.98;91.56;96112.91;4390465;32;20188;-58
2022/05/09 05:03:37;;;;;;;13.10;11.67;;;;;;;13.97;91.59;96127.31;4383839;32;20236;-59
2022/05/09 05:06:20;;;;;;;13.70;11.13;;;;;;;13.89;91.37;96128.81;4384610;32;20211;-59
2022/05/09 05:08:46;;;;;;;15.40;11.23;;;;;;;14.14;90.58;96132.88;4392335;32;20242;-58
2022/05/09 05:11:11;;;;;;;12.13;11.10;;;;;;;14.17;90.51;96129.63;4390920;32;20188;-58
2022/05/09 05:13:37;;;;;;;14.87;10.17;;;;;;;14.04;90.25;96133.06;4390855;32;20247;-58
2022/05/09 05:16:02;;;;;;;10.33;9.53;;;;;;;14.10;90.54;96139.91;4391456;32;20176;-59
2022/05/09 05:18:28;;;;;;;12.97;11.87;;;;;;;14.01;90.06;96133.66;4392142;32;20203;-58
2022/05/09 05:20:55;;;;;;;13.00;11.77;;;;;;;13.86;89.66;96136.59;4391601;32;20199;-59
2022/05/09 05:23:20;;;;;;;12.07;11.10;;;;;;;13.69;90.07;96131.81;4389972;32;20333;-59
2022/05/09 05:25:46;;;;;;;14.67;10.63;;;;;;;13.61;91.05;96129.81;4391115;32;20181;-58
2022/05/09 05:28:16;;;;;;;11.43;10.23;;;;;;;13.57;91.98;96132.28;4389631;32;20184;-58
2022/05/09 05:30:42;;;;;;;13.13;11.30;;;;;;;13.92;91.11;96135.44;4386719;32;20256;-59
2022/05/09 05:33:07;;;;;;;12.03;11.13;;;;;;;14.06;90.46;96137.03;4387659;32;20185;-59
2022/05/09 05:35:33;;;;;;;13.53;12.30;;;;;;;13.86;90.56;96136.59;4389771;32;20202;-58
2022/05/09 05:37:59;;;;;;;14.07;12.67;;;;;;;13.72;90.96;96140.00;4390724;32;20180;-59
2022/05/09 05:40:24;;;;;;;14.20;12.73;;;;;;;13.75;91.50;96141.31;4390122;32;20341;-59
2022/05/09 05:42:52;;;;;;;15.87;14.23;;;;;;;14.03;90.93;96145.63;4390897;32;20293;-59
2022/05/09 05:45:21;;;;;;;17.77;13.87;;;;;;;14.05;90.84;96142.66;4377498;32;20243;-59
2022/05/09 05:47:47;;;;;;;16.50;14.73;;;;;;;14.04;91.11;96149.06;4388267;32;20189;-59
2022/05/09 05:50:14;;;;;;;18.90;15.00;;;;;;;14.05;91.31;96145.31;4384594;32;20244;-59
2022/05/09 05:52:40;;;;;;;17.43;15.70;;;;;;;14.07;91.24;96148.50;4379767;32;20184;-59
2022/05/09 05:55:06;;;;;;;18.47;16.47;;;;;;;14.26;90.40;96143.06;4381854;32;20203;-59
2022/05/09 05:57:34;;;;;;;18.13;14.80;;;;;;;14.21;89.98;96149.28;4386661;32;20222;-58
2022/05/09 06:00:10;;;;;;;16.07;14.30;;;;;;;14.15;90.07;96150.47;4391192;32;20215;-59
2022/05/09 06:02:38;;;;;;;15.73;14.10;;;;;;;14.39;89.44;96151.06;4388898;32;20199;-59
2022/05/09 06:05:08;;;;;;;18.17;16.33;;;;;;;14.37;89.12;96150.56;4389811;32;20176;-59
2022/05/09 06:07:34;;;;;;;15.37;13.77;;;;;;;14.24;89.59;96154.03;4389382;32;20209;-59
2022/05/09 06:09:59;;;;;;;16.40;14.30;;;;;;;14.16;90.49;96151.25;4392527;32;20227;-59
2022/05/09 06:12:25;;;;;;;15.77;14.23;;;;;;;14.46;89.29;96153.38;4389008;32;20219;-59
2022/05/09 06:17:37;;;;;;;15.67;14.17;;;;;;;14.49;88.91;96168.03;4389522;32;20195;-59
2022/05/09 06:20:05;;;;;;;17.40;15.73;;;;;;;14.55;88.64;96158.84;4388492;32;20173;-58
2022/05/09 06:22:31;;;;;;;19.10;17.23;;;;;;;14.60;88.27;96164.06;4390557;32;20218;-59
2022/05/09 06:24:58;;;;;;;17.67;15.20;;;;;;;14.40;88.79;96173.22;4399126;32;20180;-59
2022/05/09 06:27:24;;;;;;;22.03;18.30;;;;;;;14.48;89.09;96169.13;4393731;32;20180;-58
2022/05/09 06:29:49;;;;;;;23.97;20.43;;;;;;;14.55;88.79;96164.94;4389407;32;20184;-58
2022/05/09 06:32:18;;;;;;;16.90;15.23;;;;;;;14.56;88.87;96171.06;4389274;32;20205;-59
2022/05/09 06:34:44;;;;;;;18.90;16.93;;;;;;;14.58;88.79;96167.03;4387730;32;20194;-59
2022/05/09 06:37:09;;;;;;;18.07;16.40;;;;;;;14.68;88.46;96168.72;4389048;32;20188;-59
2022/05/09 06:39:35;;;;;;;20.03;16.80;;;;;;;14.72;88.63;96170.50;4387806;32;20181;-59
2022/05/09 06:42:00;;;;;;;18.17;16.40;;;;;;;14.92;87.71;96174.63;4390095;32;20181;-60
2022/05/09 06:44:25;;;;;;;18.27;16.67;;;;;;;15.02;87.25;96174.41;4390759;32;20181;-59
2022/05/09 06:46:50;;;;;;;16.77;15.17;;;;;;;14.84;88.24;96177.19;4389404;32;20195;-59
2022/05/09 06:49:16;;;;;;;18.27;16.67;;;;;;;14.98;87.55;96173.41;4388522;32;20299;-59
2022/05/09 06:51:43;;;;;;;19.10;17.30;;;;;;;15.06;87.06;96178.06;4381403;32;20293;-59
2022/05/09 06:54:08;;;;;;;18.43;16.73;;;;;;;15.05;87.13;96183.69;4388857;32;20186;-60
2022/05/09 06:56:33;;;;;;;17.60;15.97;;;;;;;15.12;86.72;96173.41;4388754;32;20177;-59
2022/05/09 06:58:59;;;;;;;19.03;17.33;;;;;;;15.25;86.24;96169.88;4392285;32;20241;-59
2022/05/09 07:01:24;;;;;;;17.17;15.57;;;;;;;15.25;86.33;96171.78;4389177;32;20207;-59
2022/05/09 07:03:49;;;;;;;18.97;17.30;;;;;;;15.30;85.94;96169.00;4388680;32;20306;-59
2022/05/09 07:06:16;;;;;;;15.90;14.40;;;;;;;15.29;86.22;96173.53;4389892;32;20191;-59
2022/05/09 07:08:42;;;;;;;19.40;17.60;;;;;;;15.36;85.71;96178.50;4388956;32;20192;-59
2022/05/09 07:11:16;;;;;;;19.23;17.53;;;;;;;15.34;85.87;96184.13;4388927;32;20212;-59
2022/05/09 07:13:42;;;;;;;16.73;15.23;;;;;;;15.29;86.38;96181.56;4390617;32;20180;-59
2022/05/09 07:16:11;;;;;;;18.53;16.73;;;;;;;15.29;85.80;96186.12;4388449;32;20235;-59
2022/05/09 07:18:38;;;;;;;18.13;16.73;;;;;;;15.48;85.70;96189.44;4388532;32;20220;-59
2022/05/09 07:21:11;;;;;;;19.33;17.63;;;;;;;15.60;85.26;96188.91;4379538;32;20176;-59
2022/05/09 07:23:36;;;;;;;19.57;17.83;;;;;;;15.64;85.59;96190.69;4383197;32;20266;-58
2022/05/09 07:26:02;;;;;;;19.13;17.43;;;;;;;15.66;85.31;96183.13;4389575;32;20211;-58
2022/05/09 07:28:28;;;;;;;19.33;17.67;;;;;;;15.77;85.23;96186.38;4390654;32;20191;-58
2022/05/09 07:30:56;;;;;;;20.23;18.33;;;;;;;15.74;85.26;96187.78;4388632;32;20222;-58
2022/05/09 07:33:22;;;;;;;18.43;16.73;;;;;;;15.52;85.80;96186.94;4388830;32;20176;-58
2022/05/09 07:35:48;;;;;;;20.67;18.83;;;;;;;15.46;86.70;96191.59;4388550;32;20222;-58
2022/05/09 07:38:14;;;;;;;19.90;18.07;;;;;;;15.34;87.25;96194.81;4388744;32;20189;-58
2022/05/09 07:40:42;;;;;;;20.40;18.63;;;;;;;15.39;87.00;96191.22;4387109;32;20196;-58
2022/05/09 07:43:19;;;;;;;18.63;16.83;;;;;;;15.60;86.30;96195.03;4387696;32;20208;-59
2022/05/09 07:45:47;;;;;;;17.50;16.00;;;;;;;15.73;86.09;96199.56;4383388;32;20194;-59
2022/05/09 07:48:14;;;;;;;18.27;16.67;;;;;;;16.07;85.33;96187.50;4389005;32;20189;-59
2022/05/09 07:50:40;;;;;;;17.43;15.73;;;;;;;16.15;84.04;96200.94;4387843;32;20202;-58
2022/05/09 07:53:10;;;;;;;17.87;16.27;;;;;;;16.05;83.96;96198.50;4389483;32;20192;-59
2022/05/09 07:55:35;;;;;;;20.83;18.70;;;;;;;16.09;84.67;96196.00;4387404;32;20177;-58
2022/05/09 07:58:01;;;;;;;18.07;16.47;;;;;;;16.04;84.00;96196.13;4387313;32;20184;-60
2022/05/09 08:00:26;;;;;;;19.00;17.20;;;;;;;16.20;83.95;96186.62;4389586;32;20192;-59
2022/05/09 08:02:52;;;;;;;19.00;17.20;;;;;;;16.16;84.49;96201.72;4391189;32;20187;-60
2022/05/09 08:05:18;;;;;;;16.77;15.37;;;;;;;16.15;83.59;96189.44;4389898;32;20268;-60
2022/05/09 08:07:43;;;;;;;16.77;15.37;;;;;;;16.32;82.46;96194.88;4383593;32;20177;-60
2022/05/09 08:10:11;;;;;;;18.13;16.43;;;;;;;16.21;82.77;96195.47;4363356;32;20181;-60
2022/05/09 08:12:39;;;;;;;17.43;15.90;;;;;;;16.16;83.05;96185.66;4375675;32;20220;-60
2022/05/09 08:15:09;;;;;;;16.17;14.63;;;;;;;16.20;83.02;96192.00;4385739;32;20195;-60
2022/05/09 08:17:35;;;;;;;17.20;15.70;;;;;;;16.23;83.45;96191.34;4367477;32;20250;-60
2022/05/09 08:20:01;;;;;;;17.20;15.70;;;;;;;16.17;83.22;96186.47;4361832;32;20192;-59
2022/05/09 08:22:31;;;;;;;15.23;14.03;;;;;;;16.12;83.67;96185.47;4375225;32;20236;-60
2022/05/09 08:24:59;;;;;;;16.73;15.17;;;;;;;16.21;83.63;96190.09;4373782;32;20169;-60
2022/05/09 08:27:25;;;;;;;16.00;14.60;;;;;;;16.25;82.82;96189.16;4374949;32;20354;-60
2022/05/09 08:29:54;;;;;;;17.03;15.63;;;;;;;16.24;82.57;96182.22;4376249;32;20185;-58
2022/05/09 08:32:20;;;;;;;16.47;15.17;;;;;;;16.31;82.18;96190.63;4360909;32;20204;-58
2022/05/09 08:34:47;;;;;;;16.30;14.90;;;;;;;16.31;82.67;96193.28;4357590;32;20184;-56
2022/05/09 08:37:14;;;;;;;16.87;15.50;;;;;;;16.50;82.40;96185.81;4339773;32;20181;-57
2022/05/09 08:39:39;;;;;;;16.10;14.80;;;;;;;16.50;82.28;96195.75;4309049;32;20238;-58
2022/05/09 08:42:07;;;;;;;16.17;14.57;;;;;;;16.61;81.94;96197.06;4351523;32;20185;-59
2022/05/09 08:45:01;;;;;;;15.83;14.67;;;;;;;16.59;81.49;96193.09;4376800;32;20215;-61
2022/05/09 08:48:03;;;;;;;15.43;14.10;;;;;;;16.64;81.48;96191.09;4354142;32;20273;-46
2022/05/09 08:50:51;;;;;;;15.87;14.57;;;;;;;16.23;81.76;96194.03;4394349;32;20195;-43
2022/05/09 08:53:24;;;;;;;15.63;14.23;;;;;;;16.09;82.98;96202.16;4375268;32;20249;-43
2022/05/09 08:55:54;;;;;;;15.03;13.53;;;;;;;16.06;83.19;96196.63;4340675;32;20205;-43
2022/05/09 08:58:49;;;;;;;15.13;13.63;;;;;;;16.05;82.17;96189.69;4377564;32;20184;-46
2022/05/09 09:01:24;;;;;;;14.80;13.53;;;;;;;16.46;80.85;96184.06;4387091;32;20207;-47
2022/05/09 09:04:22;;;;;;;15.57;14.33;;;;;;;16.29;82.06;96190.13;4378703;32;20172;-43
2022/05/09 09:07:12;;;;;;;14.20;13.00;;;;;;;16.68;80.81;96191.25;4361248;32;20223;-43
2022/05/09 09:10:17;;;;;;;12.90;11.87;;;;;;;16.49;80.06;96194.16;4383704;32;20224;-46
2022/05/09 09:13:22;;;;;;;12.13;11.07;;;;;;;16.95;78.17;96187.56;4355493;32;20275;-45
2022/05/09 09:15:59;;;;;;;13.30;12.20;;;;;;;17.03;77.62;96179.56;4392673;32;20235;-43
2022/05/09 09:19:04;;;;;;;10.80;9.97;;;;;;;17.18;77.34;96189.81;4386505;32;20184;-43
2022/05/09 09:22:05;;;;;;;10.57;9.77;;;;;;;16.96;76.17;96189.94;4385522;32;20204;-43
2022/05/09 09:24:56;;;;;;;11.00;10.07;;;;;;;17.09;75.32;96189.00;4353179;32;20180;-45
2022/05/09 09:27:43;;;;;;;11.43;10.60;;;;;;;17.25;76.16;96199.31;4379642;32;20309;-44
2022/05/09 09:30:13;;;;;;;10.33;9.63;;;;;;;17.26;75.43;96192.81;4387599;32;20270;-47
2022/05/09 09:32:43;;;;;;;9.63;8.73;;;;;;;17.41;75.59;96203.88;4352597;32;20230;-44
2022/05/09 09:35:33;;;;;;;8.93;8.23;;;;;;;17.75;73.69;96189.69;4372203;32;20227;-45
2022/05/09 09:38:12;;;;;;;8.90;8.30;;;;;;;18.08;72.32;96186.50;4414425;32;20173;-44
2022/05/09 09:40:38;;;;;;;9.40;8.70;;;;;;;18.23;71.59;96191.34;4379814;32;20330;-44
2022/05/09 09:43:05;;;;;;;8.77;7.90;;;;;;;18.34;70.91;96189.87;4388510;32;20188;-46
2022/05/09 09:45:50;;;;;;;8.87;8.07;;;;;;;18.49;70.85;96183.22;4376451;32;20272;-45
2022/05/09 09:48:21;;;;;;;7.60;7.10;;;;;;;18.69;69.88;96182.53;4359421;32;20176;-45
2022/05/09 09:51:13;;;;;;;7.67;7.17;;;;;;;18.95;69.10;96193.13;4354691;32;20179;-43
2022/05/09 09:54:01;;;;;;;7.17;6.73;;;;;;;18.94;68.14;96177.31;4384315;32;20207;-43
2022/05/09 09:56:32;;;;;;;7.43;6.83;;;;;;;19.24;68.21;96181.56;4380074;32;20188;-45
2022/05/09 09:59:20;;;;;;;7.83;7.23;;;;;;;19.39;67.59;96177.50;4355984;32;20271;-47
2022/05/09 10:02:22;;;;;;;9.30;8.37;;;;;;;19.62;66.40;96176.06;4364743;32;20267;-45
2022/05/09 10:04:48;;;;;;;7.87;7.47;;;;;;;19.72;65.47;96175.69;4385113;32;20229;-44
2022/05/09 10:07:30;;;;;;;7.97;7.47;;;;;;;19.74;64.86;96184.22;4390505;32;20259;-43
2022/05/09 10:10:12;;;;;;;7.57;7.03;;;;;;;19.73;65.08;96173.78;4374761;32;20192;-44
2022/05/09 10:12:48;;;;;;;7.90;7.30;;;;;;;19.85;65.00;96173.81;4378591;32;20255;-44
2022/05/09 10:15:26;;;;;;;7.20;6.60;;;;;;;19.87;64.04;96176.97;4375671;32;20229;-43
2022/05/09 10:17:52;;;;;;;7.40;6.90;;;;;;;19.99;64.04;96168.91;4382752;32;20411;-43
2022/05/09 10:20:39;;;;;;;8.03;7.23;;;;;;;19.98;63.64;96169.25;4366818;32;20227;-44
2022/05/09 10:26:06;;;;;;;7.53;6.93;;;;;;;19.96;64.06;96161.50;4390061;32;20215;-47
2022/05/09 10:28:38;;;;;;;7.00;6.50;;;;;;;19.93;63.35;96156.00;4377564;32;20228;-43
2022/05/09 10:31:29;;;;;;;8.40;7.60;;;;;;;20.08;63.45;96161.53;4359320;32;20184;-60
2022/05/09 10:34:00;;;;;;;8.20;7.43;;;;;;;19.79;63.23;96165.16;4338983;32;20184;-60
2022/05/09 10:36:44;;;;;;;8.50;7.90;;;;;;;19.26;64.54;96173.16;4368434;32;20211;-60
2022/05/09 10:39:26;;;;;;;9.30;8.40;;;;;;;19.07;65.53;96160.97;4359312;32;20218;-60
2022/05/09 10:42:00;;;;;;;8.50;7.80;;;;;;;19.10;64.75;96160.31;4347172;32;20344;-61
2022/05/09 10:44:52;;;;;;;10.13;9.23;;;;;;;19.09;64.88;96166.78;4317883;32;20251;-60
2022/05/09 10:47:47;;;;;;;8.97;8.43;;;;;;;18.99;65.66;96151.03;4341337;32;20292;-60
2022/05/09 10:50:19;;;;;;;9.07;8.20;;;;;;;19.10;65.23;96151.44;4340370;32;20184;-60
2022/05/09 10:53:06;;;;;;;8.30;7.60;;;;;;;19.10;65.92;96152.22;4342574;32;20192;-60
2022/05/09 10:55:43;;;;;;;8.47;7.77;;;;;;;19.04;65.67;96150.06;4365209;32;20195;-60
2022/05/09 10:58:40;;;;;;;9.43;8.60;;;;;;;19.02;66.60;96147.69;4359867;32;20234;-61
2022/05/09 11:01:21;;;;;;;8.20;7.70;;;;;;;19.10;66.54;96136.09;4344013;32;20199;-61
2022/05/09 11:03:52;;;;;;;9.97;9.30;;;;;;;18.96;65.51;96137.44;4360577;32;20200;-60
2022/05/09 11:06:42;;;;;;;9.00;8.20;;;;;;;19.05;66.50;96136.28;4340678;32;20207;-60
2022/05/09 11:09:16;;;;;;;8.67;7.70;;;;;;;19.05;64.36;96133.59;4369542;32;20185;-61
2022/05/09 11:11:56;;;;;;;8.07;7.53;;;;;;;19.06;64.82;96137.84;4359591;32;20188;-60
2022/05/09 11:14:49;;;;;;;9.03;8.40;;;;;;;19.09;65.20;96133.72;4338963;32;20530;-60
2022/05/09 11:17:37;;;;;;;8.87;8.20;;;;;;;18.93;65.61;96128.13;4351691;32;20247;-60
2022/05/09 11:20:12;;;;;;;8.77;8.07;;;;;;;19.06;64.87;96137.84;4350390;32;20196;-61
2022/05/09 11:23:12;;;;;;;8.40;7.80;;;;;;;19.07;65.02;96128.69;4363314;32;20223;-60
2022/05/09 11:26:22;;;;;;;8.13;7.43;;;;;;;19.06;64.87;96137.06;4357493;32;20256;-60
2022/05/09 11:29:13;;;;;;;7.90;7.40;;;;;;;19.04;64.43;96120.47;4349037;32;20246;-60
2022/05/09 11:31:50;;;;;;;7.87;7.27;;;;;;;19.08;64.05;96122.19;4378701;32;20219;-60
2022/05/09 11:34:37;;;;;;;11.47;10.37;;;;;;;19.08;63.33;96116.81;4379143;32;20214;-60
2022/05/09 11:37:40;;;;;;;7.73;7.17;;;;;;;19.02;63.09;96112.72;4388987;32;20189;-61
2022/05/09 11:40:21;;;;;;;7.13;6.70;;;;;;;19.06;63.85;96104.78;4374979;32;20178;-60
2022/05/09 11:46:25;;;;;;;8.17;6.60;;;;;;;19.29;60.48;96097.97;4389088;32;20187;-60
2022/05/09 11:49:09;;;;;;;5.97;5.60;;;;;;;19.22;61.03;96087.72;4353595;32;20192;-62
2022/05/09 11:51:44;;;;;;;6.40;6.00;;;;;;;19.29;60.38;96097.97;4376192;32;20181;-61
2022/05/09 11:54:15;;;;;;;6.57;6.10;;;;;;;19.33;60.33;96093.47;4387253;32;20242;-60